Time;durP1;ratioP1;P1;durP2;ratioP2;P2;SDS_P1;SDS_P2;PMS_P1;PMS_P2;Temp;Humidity;BMP_temperature;BMP_pressure;BME280_temperature;BME280_humidity;BME280_pressure;Samples;Min_cycle;Max_cycle;Signal;HPM_P1;HPM_P2
2022/09/24 00:02:12;;;;;;;5.45;4.88;;;;;;;-145.23;100.00;58621.06;5006522;28;20225;-51
2022/09/24 00:04:39;;;;;;;4.93;4.30;;;;;;;-145.23;100.00;58621.06;4993699;28;20238;-51
2022/09/24 00:07:05;;;;;;;5.28;4.78;;;;;;;-145.23;100.00;58621.06;4996434;28;20724;-51
2022/09/24 00:09:32;;;;;;;5.55;5.05;;;;;;;-145.23;100.00;58621.06;5017141;28;20244;-52
2022/09/24 00:11:59;;;;;;;5.25;4.75;;;;;;;-145.23;100.00;58621.06;5005190;28;20242;-52
2022/09/24 00:14:26;;;;;;;5.97;5.00;;;;;;;-145.23;100.00;58621.06;4994848;28;20230;-51
2022/09/24 00:16:54;;;;;;;5.60;5.10;;;;;;;-145.23;100.00;58621.06;5005694;28;20244;-52
2022/09/24 00:19:20;;;;;;;7.07;5.13;;;;;;;-145.23;100.00;58621.06;4996179;28;20226;-52
2022/09/24 00:21:46;;;;;;;5.85;5.25;;;;;;;-145.23;100.00;58621.06;4992795;28;20628;-51
2022/09/24 00:26:48;;;;;;;5.15;4.68;;;;;;;-145.23;100.00;58621.06;5019016;28;20728;-51
2022/09/24 00:27:01;;;;;;;7.05;5.22;;;;;;;-145.23;100.00;58621.06;4989699;28;20244;-51
2022/09/24 00:29:28;;;;;;;5.05;4.55;;;;;;;-145.23;100.00;58621.06;4999761;28;20585;-51
2022/09/24 00:31:56;;;;;;;6.68;6.07;;;;;;;-145.23;100.00;58621.06;5003467;28;20229;-52
2022/09/24 00:34:23;;;;;;;6.25;5.53;;;;;;;-145.23;100.00;58621.06;5000787;28;20242;-52
2022/09/24 00:36:51;;;;;;;5.22;4.70;;;;;;;-145.23;100.00;58621.06;5008749;28;20225;-52
2022/09/24 00:39:18;;;;;;;5.82;5.32;;;;;;;-145.23;100.00;58621.06;5011102;28;20232;-52
2022/09/24 00:41:47;;;;;;;7.45;5.38;;;;;;;-145.23;100.00;58621.06;4990616;28;20237;-52
2022/09/24 00:44:43;;;;;;;5.78;5.13;;;;;;;-145.23;100.00;58621.06;5002586;28;20263;-53
2022/09/24 00:47:12;;;;;;;5.38;4.80;;;;;;;-145.23;100.00;58621.06;4992769;28;20270;-51
2022/09/24 00:49:39;;;;;;;5.85;5.35;;;;;;;-145.23;100.00;58621.06;4998125;28;20228;-51
2022/09/24 00:52:06;;;;;;;5.32;4.93;;;;;;;-145.23;100.00;58621.06;4993996;28;20238;-52
2022/09/24 00:54:33;;;;;;;9.30;5.97;;;;;;;-145.23;100.00;58621.06;5012141;28;20830;-50
2022/09/24 00:57:00;;;;;;;8.10;6.30;;;;;;;-145.23;100.00;58621.06;5000432;28;20296;-51
2022/09/24 00:59:27;;;;;;;6.25;5.65;;;;;;;-145.23;100.00;58621.06;5002738;28;20233;-51
2022/09/24 01:01:57;;;;;;;5.90;5.47;;;;;;;-145.23;100.00;58621.06;4995239;28;20233;-53
2022/09/24 01:04:27;;;;;;;5.95;5.03;;;;;;;-145.23;100.00;58621.06;4995091;28;20747;-53
2022/09/24 01:06:54;;;;;;;5.43;5.03;;;;;;;-145.23;100.00;58621.06;5005032;28;20248;-52
2022/09/24 01:09:21;;;;;;;6.50;4.68;;;;;;;-145.23;100.00;58621.06;4995372;28;20248;-52
2022/09/24 01:11:55;;;;;;;5.53;5.10;;;;;;;-145.23;100.00;58621.06;5003870;28;20232;-51
2022/09/24 01:14:42;;;;;;;6.20;5.63;;;;;;;-145.23;100.00;58621.06;4994178;28;20622;-52
2022/09/24 01:17:16;;;;;;;8.80;5.63;;;;;;;-145.23;100.00;58621.06;4991247;28;20245;-51
2022/09/24 01:20:12;;;;;;;6.90;6.18;;;;;;;-145.23;100.00;58621.06;4988447;28;20944;-52
2022/09/24 01:22:50;;;;;;;6.97;6.28;;;;;;;-145.23;100.00;58621.06;5013672;28;20228;-52
2022/09/24 01:25:23;;;;;;;6.60;6.00;;;;;;;-145.23;100.00;58621.06;4994309;28;20229;-52
2022/09/24 01:28:13;;;;;;;5.68;5.18;;;;;;;-145.23;100.00;58621.06;5001327;28;20240;-52
2022/09/24 01:30:42;;;;;;;6.28;5.68;;;;;;;-145.23;100.00;58621.06;4993638;28;20648;-52
2022/09/24 01:33:13;;;;;;;6.45;5.43;;;;;;;-145.23;100.00;58621.06;4995806;28;20240;-53
2022/09/24 01:35:42;;;;;;;5.75;5.25;;;;;;;-145.23;100.00;58621.06;4996527;28;20243;-52
2022/09/24 01:38:11;;;;;;;6.32;5.82;;;;;;;-145.23;100.00;58621.06;4993907;28;20621;-52
2022/09/24 01:40:40;;;;;;;7.18;6.47;;;;;;;-145.23;100.00;58621.06;4989878;28;20233;-53
2022/09/24 01:43:07;;;;;;;6.97;6.40;;;;;;;-145.23;100.00;58621.06;4996925;28;20588;-52
2022/09/24 01:45:36;;;;;;;6.88;6.05;;;;;;;-145.23;100.00;58621.06;4988663;28;20715;-51
2022/09/24 01:48:04;;;;;;;6.75;6.05;;;;;;;-145.23;100.00;58621.06;4994151;28;20319;-52
2022/09/24 01:50:33;;;;;;;6.57;5.47;;;;;;;-145.23;100.00;58621.06;4994974;28;20233;-52
2022/09/24 01:53:02;;;;;;;6.82;6.22;;;;;;;-145.23;100.00;58621.06;4986769;28;20257;-52
2022/09/24 01:55:32;;;;;;;7.50;6.80;;;;;;;-145.23;100.00;58621.06;4993645;28;20233;-52
2022/09/24 01:58:03;;;;;;;6.35;5.80;;;;;;;-145.23;100.00;58621.06;5002297;28;20237;-53
2022/09/24 02:00:30;;;;;;;6.95;6.45;;;;;;;-145.23;100.00;58621.06;5003882;28;20233;-51
2022/09/24 02:03:00;;;;;;;6.70;6.00;;;;;;;-145.23;100.00;58621.06;4991768;28;20238;-52
2022/09/24 02:05:32;;;;;;;6.63;6.03;;;;;;;-145.23;100.00;58621.06;4988021;28;20600;-53
2022/09/24 02:08:05;;;;;;;7.63;6.93;;;;;;;-145.23;100.00;58621.06;4995000;28;20716;-51
2022/09/24 02:10:37;;;;;;;6.80;6.20;;;;;;;-145.23;100.00;58621.06;4991672;28;20228;-52
2022/09/24 02:13:07;;;;;;;7.35;6.53;;;;;;;-145.23;100.00;58621.06;4989551;28;20324;-51
2022/09/24 02:15:36;;;;;;;7.05;6.35;;;;;;;-145.23;100.00;58621.06;5007207;28;20744;-54
2022/09/24 02:18:05;;;;;;;7.50;6.80;;;;;;;-145.23;100.00;58621.06;4999097;28;20287;-52
2022/09/24 02:20:35;;;;;;;7.13;5.95;;;;;;;-145.23;100.00;58621.06;4996064;28;20222;-52
2022/09/24 02:23:03;;;;;;;6.80;6.28;;;;;;;-145.23;100.00;58621.06;4986224;28;20244;-52
2022/09/24 02:25:33;;;;;;;7.25;6.57;;;;;;;-145.23;100.00;58621.06;4995851;28;20222;-53
2022/09/24 02:28:01;;;;;;;11.98;5.95;;;;;;;-145.23;100.00;58621.06;4996296;28;20742;-52
2022/09/24 02:30:28;;;;;;;6.60;6.00;;;;;;;-145.23;100.00;58621.06;4992234;28;20305;-52
2022/09/24 02:32:55;;;;;;;7.57;6.47;;;;;;;-145.23;100.00;58621.06;4992856;28;20234;-52
2022/09/24 02:35:21;;;;;;;7.35;6.70;;;;;;;-145.23;100.00;58621.06;5003510;28;20623;-51
2022/09/24 02:37:49;;;;;;;7.20;5.82;;;;;;;-145.23;100.00;58621.06;4991135;28;20221;-51
2022/09/24 02:40:15;;;;;;;6.95;6.13;;;;;;;-145.23;100.00;58621.06;4989599;28;20613;-52
2022/09/24 02:42:42;;;;;;;7.47;6.78;;;;;;;-145.23;100.00;58621.06;4989760;28;20254;-52
2022/09/24 02:45:10;;;;;;;6.72;6.13;;;;;;;-145.23;100.00;58621.06;4995217;28;20245;-51
2022/09/24 02:47:36;;;;;;;6.95;6.35;;;;;;;-145.23;100.00;58621.06;4995838;28;20248;-51
2022/09/24 02:50:04;;;;;;;7.25;6.63;;;;;;;-145.23;100.00;58621.06;5001739;28;20782;-51
2022/09/24 02:52:30;;;;;;;7.00;6.30;;;;;;;-145.23;100.00;58621.06;4992403;28;20233;-52
2022/09/24 02:54:58;;;;;;;6.70;6.10;;;;;;;-145.23;100.00;58621.06;4994422;28;20275;-51
2022/09/24 02:57:25;;;;;;;5.72;5.13;;;;;;;-145.23;100.00;58621.06;4992648;28;20245;-51
2022/09/24 02:59:51;;;;;;;5.88;5.38;;;;;;;-145.23;100.00;58621.06;4992813;28;20237;-52
2022/09/24 03:02:18;;;;;;;5.95;5.38;;;;;;;-145.23;100.00;58621.06;4991844;28;20241;-52
2022/09/24 03:04:45;;;;;;;6.22;5.72;;;;;;;-145.23;100.00;58621.06;4989749;28;20284;-52
2022/09/24 03:07:13;;;;;;;7.30;6.63;;;;;;;-145.23;100.00;58621.06;4988142;28;20249;-52
2022/09/24 03:09:39;;;;;;;6.57;5.85;;;;;;;-145.23;100.00;58621.06;4991162;28;20348;-51
2022/09/24 03:12:07;;;;;;;7.00;6.05;;;;;;;-145.23;100.00;58621.06;4988744;28;20225;-52
2022/09/24 03:14:34;;;;;;;7.00;5.78;;;;;;;-145.23;100.00;58621.06;4995457;28;20233;-53
2022/09/24 03:17:00;;;;;;;6.55;5.95;;;;;;;-145.23;100.00;58621.06;4994341;28;20240;-52
2022/09/24 03:19:27;;;;;;;6.70;5.82;;;;;;;-145.23;100.00;58621.06;4995943;28;21313;-54
2022/09/24 03:21:53;;;;;;;7.63;6.38;;;;;;;-145.23;100.00;58621.06;4991559;28;20261;-52
2022/09/24 03:24:20;;;;;;;6.57;5.97;;;;;;;-145.23;100.00;58621.06;4999628;28;20236;-52
2022/09/24 03:26:46;;;;;;;6.93;6.10;;;;;;;-145.23;100.00;58621.06;5004044;28;20276;-52
2022/09/24 03:29:14;;;;;;;7.68;6.90;;;;;;;-145.23;100.00;58621.06;5005760;28;20329;-51
2022/09/24 03:31:39;;;;;;;6.82;6.22;;;;;;;-145.23;100.00;58621.06;4994078;28;20570;-51
2022/09/24 03:34:06;;;;;;;6.22;5.70;;;;;;;-145.23;100.00;58621.06;4994794;28;20237;-52
2022/09/24 03:36:32;;;;;;;6.60;5.82;;;;;;;-145.23;100.00;58621.06;5010951;28;20230;-53
2022/09/24 03:38:59;;;;;;;7.55;6.75;;;;;;;-145.23;100.00;58621.06;5017001;28;20233;-51
2022/09/24 03:41:27;;;;;;;7.57;6.88;;;;;;;-145.23;100.00;58621.06;5013283;28;20771;-51
2022/09/24 03:43:53;;;;;;;6.70;6.10;;;;;;;-145.23;100.00;58621.06;5018219;28;20415;-55
2022/09/24 03:46:23;;;;;;;6.60;6.10;;;;;;;-145.23;100.00;58621.06;5012354;28;20229;-53
2022/09/24 03:48:51;;;;;;;6.88;6.18;;;;;;;-145.23;100.00;58621.06;5001305;28;20330;-51
2022/09/24 03:51:18;;;;;;;9.68;7.70;;;;;;;-145.23;100.00;58621.06;4994892;28;20317;-54
2022/09/24 03:53:45;;;;;;;6.18;5.57;;;;;;;-145.23;100.00;58621.06;5000285;28;20763;-51
2022/09/24 03:56:12;;;;;;;6.45;5.82;;;;;;;-145.23;100.00;58621.06;4998634;28;20245;-54
2022/09/24 03:58:39;;;;;;;7.10;6.40;;;;;;;-145.23;100.00;58621.06;5004264;28;20228;-52
2022/09/24 04:01:06;;;;;;;7.50;6.82;;;;;;;-145.23;100.00;58621.06;5014101;28;20727;-53
2022/09/24 04:03:34;;;;;;;9.93;6.72;;;;;;;-145.23;100.00;58621.06;5006131;28;20233;-52
2022/09/24 04:06:01;;;;;;;7.43;6.82;;;;;;;-145.23;100.00;58621.06;4991054;28;20256;-50
2022/09/24 04:08:27;;;;;;;6.57;5.95;;;;;;;-145.23;100.00;58621.06;4993941;28;20264;-53
2022/09/24 04:10:55;;;;;;;6.68;6.05;;;;;;;-145.23;100.00;58621.06;4999658;28;21648;-52
2022/09/24 04:13:21;;;;;;;9.13;7.50;;;;;;;-145.23;100.00;58621.06;5004968;28;20267;-51
2022/09/24 04:15:49;;;;;;;7.00;6.35;;;;;;;-145.23;100.00;58621.06;4993923;28;20844;-51
2022/09/24 04:18:15;;;;;;;8.07;7.38;;;;;;;-145.23;100.00;58621.06;4992087;28;20317;-50
2022/09/24 04:20:44;;;;;;;14.00;7.97;;;;;;;-145.23;100.00;58621.06;5000404;28;20242;-51
2022/09/24 04:23:11;;;;;;;8.55;7.75;;;;;;;-145.23;100.00;58621.06;4995883;28;20333;-51
2022/09/24 04:25:39;;;;;;;10.20;9.25;;;;;;;-145.23;100.00;58621.06;4993725;28;20716;-51
2022/09/24 04:28:07;;;;;;;8.48;6.60;;;;;;;-145.23;100.00;58621.06;5011749;28;20233;-51
2022/09/24 04:30:34;;;;;;;8.95;8.15;;;;;;;-145.23;100.00;58621.06;4999722;28;20730;-52
2022/09/24 04:33:01;;;;;;;8.85;7.30;;;;;;;-145.23;100.00;58621.06;5002494;28;20349;-52
2022/09/24 04:35:29;;;;;;;9.00;7.75;;;;;;;-145.23;100.00;58621.06;5009137;28;20320;-52
2022/09/24 04:37:59;;;;;;;7.57;6.97;;;;;;;-145.23;100.00;58621.06;4996455;28;20249;-55
2022/09/24 04:40:26;;;;;;;9.82;8.25;;;;;;;-145.23;100.00;58621.06;4990068;28;20251;-52
2022/09/24 04:42:52;;;;;;;7.55;6.85;;;;;;;-145.23;100.00;58621.06;5005536;28;20687;-52
2022/09/24 04:45:19;;;;;;;7.72;7.00;;;;;;;-145.23;100.00;58621.06;5007427;28;20782;-51
2022/09/24 04:47:52;;;;;;;7.57;6.47;;;;;;;-145.23;100.00;58621.06;5006340;28;20268;-52
2022/09/24 04:50:19;;;;;;;6.72;6.13;;;;;;;-145.23;100.00;58621.06;4999270;28;20259;-51
2022/09/24 04:52:45;;;;;;;7.95;7.35;;;;;;;-145.23;100.00;58621.06;5000100;28;20229;-51
2022/09/24 04:55:13;;;;;;;7.80;7.03;;;;;;;-145.23;100.00;58621.06;4995507;28;20236;-51
2022/09/24 04:57:40;;;;;;;7.93;6.30;;;;;;;-145.23;100.00;58621.06;4986345;28;21433;-52
2022/09/24 05:00:09;;;;;;;10.40;8.60;;;;;;;-145.23;100.00;58621.06;5001053;28;20230;-53
2022/09/24 05:02:35;;;;;;;8.50;7.03;;;;;;;-145.23;100.00;58621.06;4992961;28;20229;-52
2022/09/24 05:05:02;;;;;;;8.73;7.90;;;;;;;-145.23;100.00;58621.06;4998715;28;20699;-52
2022/09/24 05:07:28;;;;;;;7.78;6.97;;;;;;;-145.23;100.00;58621.06;4993995;28;20237;-52
2022/09/24 05:09:56;;;;;;;8.07;7.28;;;;;;;-145.23;100.00;58621.06;4992471;28;20300;-52
2022/09/24 05:12:24;;;;;;;8.18;7.38;;;;;;;-145.23;100.00;58621.06;4993977;28;20225;-52
2022/09/24 05:14:50;;;;;;;10.10;7.20;;;;;;;-145.23;100.00;58621.06;5003898;28;20229;-51
2022/09/24 05:17:17;;;;;;;7.47;6.85;;;;;;;-145.23;100.00;58621.06;4992620;28;20229;-51
2022/09/24 05:19:45;;;;;;;5.72;5.22;;;;;;;-145.23;100.00;58621.06;4992001;28;20235;-53
2022/09/24 05:22:14;;;;;;;7.78;6.50;;;;;;;-145.23;100.00;58621.06;4991611;28;20692;-53
2022/09/24 05:24:42;;;;;;;7.47;6.80;;;;;;;-145.23;100.00;58621.06;4990580;28;20268;-53
2022/09/24 05:27:09;;;;;;;7.95;6.93;;;;;;;-145.23;100.00;58621.06;4992546;28;20238;-53
2022/09/24 05:29:37;;;;;;;7.72;7.05;;;;;;;-145.23;100.00;58621.06;5006028;28;20299;-51
2022/09/24 05:32:06;;;;;;;7.38;6.63;;;;;;;-145.23;100.00;58621.06;4998457;28;20233;-54
2022/09/24 05:34:33;;;;;;;7.35;6.68;;;;;;;-145.23;100.00;58621.06;4992563;28;20237;-55
2022/09/24 05:37:03;;;;;;;7.93;7.25;;;;;;;-145.23;100.00;58621.06;4997219;28;20320;-52
2022/09/24 05:39:34;;;;;;;8.77;7.88;;;;;;;-145.23;100.00;58621.06;4991983;28;20284;-52
2022/09/24 05:42:03;;;;;;;8.43;7.63;;;;;;;-145.23;100.00;58621.06;4988339;28;20246;-52
2022/09/24 05:44:30;;;;;;;9.23;7.15;;;;;;;-145.23;100.00;58621.06;5008070;28;20233;-51
2022/09/24 05:46:58;;;;;;;8.15;7.45;;;;;;;-145.23;100.00;58621.06;4995892;28;20634;-52
2022/09/24 05:49:25;;;;;;;6.57;6.03;;;;;;;-145.23;100.00;58621.06;4989587;28;20245;-51
2022/09/24 05:51:51;;;;;;;8.13;6.60;;;;;;;-145.23;100.00;58621.06;4992911;28;20238;-51
2022/09/24 05:54:18;;;;;;;9.00;6.25;;;;;;;-145.23;100.00;58621.06;4999565;28;20711;-51
2022/09/24 05:56:46;;;;;;;7.43;6.68;;;;;;;-145.23;100.00;58621.06;4990340;28;20233;-50
2022/09/24 05:59:12;;;;;;;6.78;6.18;;;;;;;-145.23;100.00;58621.06;4996184;28;20248;-51
2022/09/24 06:01:39;;;;;;;10.07;7.22;;;;;;;-145.23;100.00;58621.06;5001056;28;20359;-53
2022/09/24 06:04:07;;;;;;;6.82;6.13;;;;;;;-145.23;100.00;58621.06;5010843;28;20236;-52
2022/09/24 06:06:34;;;;;;;8.15;6.75;;;;;;;-145.23;100.00;58621.06;5005195;28;20245;-54
2022/09/24 06:09:00;;;;;;;7.07;6.40;;;;;;;-145.23;100.00;58621.06;4999325;28;20238;-55
2022/09/24 06:11:28;;;;;;;7.57;6.78;;;;;;;-145.23;100.00;58621.06;5005672;28;20242;-53
2022/09/24 06:13:54;;;;;;;8.10;7.00;;;;;;;-145.23;100.00;58621.06;4999127;28;20323;-52
2022/09/24 06:16:21;;;;;;;8.02;6.38;;;;;;;-145.23;100.00;58621.06;4996554;28;20245;-52
2022/09/24 06:18:47;;;;;;;7.47;6.78;;;;;;;-145.23;100.00;58621.06;4994924;28;20240;-52
2022/09/24 06:21:17;;;;;;;8.73;6.35;;;;;;;-145.23;100.00;58621.06;4996341;28;20229;-52
2022/09/24 06:23:45;;;;;;;7.60;6.85;;;;;;;-145.23;100.00;58621.06;4992974;28;20751;-51
2022/09/24 06:26:13;;;;;;;9.05;8.25;;;;;;;-145.23;100.00;58621.06;4994382;28;20229;-50
2022/09/24 06:28:40;;;;;;;8.38;7.57;;;;;;;-145.23;100.00;58621.06;4996305;28;20580;-51
2022/09/24 06:31:08;;;;;;;6.57;5.97;;;;;;;-145.23;100.00;58621.06;4999249;28;20887;-54
2022/09/24 06:33:36;;;;;;;7.13;6.45;;;;;;;-145.23;100.00;58621.06;4995695;28;20241;-52
2022/09/24 06:36:04;;;;;;;6.70;5.68;;;;;;;-145.23;100.00;58621.06;4989534;28;20430;-52
2022/09/24 06:38:32;;;;;;;8.05;6.20;;;;;;;-145.23;100.00;58621.06;4992054;28;20240;-52
2022/09/24 06:40:59;;;;;;;8.68;7.38;;;;;;;-145.23;100.00;58621.06;4996092;28;20317;-52
2022/09/24 06:43:26;;;;;;;8.50;7.63;;;;;;;-145.23;100.00;58621.06;4997422;28;20283;-52
2022/09/24 06:45:55;;;;;;;9.63;6.85;;;;;;;-145.23;100.00;58621.06;4989537;28;20881;-52
2022/09/24 06:48:22;;;;;;;8.77;6.60;;;;;;;-145.23;100.00;58621.06;4991685;28;20238;-52
2022/09/24 06:50:48;;;;;;;8.45;7.75;;;;;;;-145.23;100.00;58621.06;4994119;28;20237;-53
2022/09/24 06:53:15;;;;;;;8.07;6.65;;;;;;;-145.23;100.00;58621.06;4992866;28;20917;-51
2022/09/24 06:55:43;;;;;;;7.82;7.13;;;;;;;-145.23;100.00;58621.06;4993183;28;20233;-52
2022/09/24 06:58:11;;;;;;;8.05;7.00;;;;;;;-145.23;100.00;58621.06;4992807;28;20242;-52
2022/09/24 07:00:38;;;;;;;8.15;7.35;;;;;;;-145.23;100.00;58621.06;4985101;28;20226;-55
2022/09/24 07:03:05;;;;;;;7.88;7.15;;;;;;;-145.23;100.00;58621.06;4993317;28;20233;-51
2022/09/24 07:05:32;;;;;;;7.68;6.80;;;;;;;-145.23;100.00;58621.06;4988453;28;20238;-53
2022/09/24 07:07:58;;;;;;;6.68;6.07;;;;;;;-145.23;100.00;58621.06;4981214;28;20238;-52
2022/09/24 07:10:26;;;;;;;7.57;6.85;;;;;;;-145.23;100.00;58621.06;4996698;28;20228;-52
2022/09/24 07:12:54;;;;;;;8.20;7.38;;;;;;;-145.23;100.00;58621.06;4990301;28;20240;-52
2022/09/24 07:15:21;;;;;;;8.00;7.30;;;;;;;-145.23;100.00;58621.06;5001653;28;22457;-51
2022/09/24 07:17:47;;;;;;;8.05;7.32;;;;;;;-145.23;100.00;58621.06;4987374;28;20236;-53
2022/09/24 07:20:14;;;;;;;9.32;7.78;;;;;;;-145.23;100.00;58621.06;4989441;28;20249;-52
2022/09/24 07:22:41;;;;;;;8.13;7.32;;;;;;;-145.23;100.00;58621.06;4990985;28;20290;-52
2022/09/24 07:25:09;;;;;;;9.07;7.40;;;;;;;-145.23;100.00;58621.06;4989593;28;20226;-52
2022/09/24 07:27:36;;;;;;;7.75;7.03;;;;;;;-145.23;100.00;58621.06;4998865;28;20241;-52
2022/09/24 07:30:06;;;;;;;9.07;8.00;;;;;;;-145.23;100.00;58621.06;4986917;28;20377;-50
2022/09/24 07:32:32;;;;;;;7.85;7.15;;;;;;;-145.23;100.00;58621.06;4990703;28;20291;-52
2022/09/24 07:34:59;;;;;;;7.13;6.53;;;;;;;-145.23;100.00;58621.06;4990936;28;20233;-51
2022/09/24 07:37:25;;;;;;;7.55;6.95;;;;;;;-145.23;100.00;58621.06;4992707;28;20727;-52
2022/09/24 07:39:52;;;;;;;8.13;7.47;;;;;;;-145.23;100.00;58621.06;4996023;28;20229;-51
2022/09/24 07:42:20;;;;;;;9.00;7.03;;;;;;;-145.23;100.00;58621.06;4999017;28;20230;-52
2022/09/24 07:44:47;;;;;;;8.15;7.45;;;;;;;-145.23;100.00;58621.06;4993971;28;20317;-52
2022/09/24 07:47:16;;;;;;;10.60;8.65;;;;;;;-145.23;100.00;58621.06;4994977;28;20237;-53
2022/09/24 07:49:43;;;;;;;7.47;6.78;;;;;;;-145.23;100.00;58621.06;4989437;28;20658;-52
2022/09/24 07:52:10;;;;;;;8.68;7.85;;;;;;;-145.23;100.00;58621.06;4993778;28;20230;-53
2022/09/24 07:54:37;;;;;;;8.55;7.15;;;;;;;-145.23;100.00;58621.06;5008101;28;20264;-51
2022/09/24 07:57:03;;;;;;;7.32;6.63;;;;;;;-145.23;100.00;58621.06;4991717;28;20238;-51
2022/09/24 07:59:31;;;;;;;7.97;7.28;;;;;;;-145.23;100.00;58621.06;5003457;28;20229;-51
2022/09/24 08:01:58;;;;;;;8.63;7.45;;;;;;;-145.23;100.00;58621.06;4985061;28;20779;-52
2022/09/24 08:04:25;;;;;;;8.05;7.25;;;;;;;-145.23;100.00;58621.06;4985020;28;20234;-52
2022/09/24 08:06:52;;;;;;;7.45;6.25;;;;;;;-145.23;100.00;58621.06;4990523;28;20232;-53
2022/09/24 08:09:19;;;;;;;8.45;7.55;;;;;;;-145.23;100.00;58621.06;4994837;28;20240;-51
2022/09/24 08:11:46;;;;;;;7.13;6.50;;;;;;;-145.23;100.00;58621.06;4992102;28;20741;-52
2022/09/24 08:14:12;;;;;;;8.15;6.85;;;;;;;-145.23;100.00;58621.06;4997924;28;20236;-53
2022/09/24 08:16:39;;;;;;;6.70;6.10;;;;;;;-145.23;100.00;58621.06;4996122;28;20233;-52
2022/09/24 08:19:12;;;;;;;8.05;7.25;;;;;;;-145.23;100.00;58621.06;4994218;28;20233;-52
2022/09/24 08:21:40;;;;;;;6.90;6.30;;;;;;;-145.23;100.00;58621.06;5002774;28;20234;-53
2022/09/24 08:24:06;;;;;;;8.07;7.47;;;;;;;-145.23;100.00;58621.06;4993117;28;20229;-51
2022/09/24 08:26:33;;;;;;;8.02;7.22;;;;;;;-145.23;100.00;58621.06;4999382;28;20236;-52
2022/09/24 08:28:59;;;;;;;7.72;6.97;;;;;;;-145.23;100.00;58621.06;5005201;28;20229;-52
2022/09/24 08:31:26;;;;;;;8.05;7.35;;;;;;;-145.23;100.00;58621.06;5008632;28;20234;-56
2022/09/24 08:33:52;;;;;;;9.10;6.63;;;;;;;-145.23;100.00;58621.06;5011361;28;20296;-53
2022/09/24 08:36:19;;;;;;;9.90;7.75;;;;;;;-145.23;100.00;58621.06;4996878;28;20686;-52
2022/09/24 08:38:47;;;;;;;7.45;6.75;;;;;;;-145.23;100.00;58621.06;5007684;28;20717;-53
2022/09/24 08:41:37;;;;;;;8.38;7.53;;;;;;;-145.23;100.00;58621.06;5005706;28;20232;-52
2022/09/24 08:44:05;;;;;;;8.32;7.53;;;;;;;-145.23;100.00;58621.06;4994123;28;20260;-53
2022/09/24 08:49:22;;;;;;;8.18;6.97;;;;;;;-145.23;100.00;58621.06;5001211;28;20252;-52
2022/09/24 08:51:56;;;;;;;6.28;5.68;;;;;;;-145.23;100.00;58621.06;5000550;28;20244;-52
2022/09/24 08:54:25;;;;;;;10.02;7.70;;;;;;;-145.23;100.00;58621.06;4990002;28;20283;-52
2022/09/24 08:56:54;;;;;;;8.05;7.25;;;;;;;-145.23;100.00;58621.06;4997364;28;20237;-51
2022/09/24 08:59:26;;;;;;;7.68;6.88;;;;;;;-145.23;100.00;58621.06;4999185;28;20232;-52
2022/09/24 09:02:00;;;;;;;7.68;6.97;;;;;;;-145.23;100.00;58621.06;4999074;28;20241;-54
2022/09/24 09:04:29;;;;;;;6.68;6.05;;;;;;;-145.23;100.00;58621.06;4989788;28;20221;-51
2022/09/24 09:07:02;;;;;;;8.60;7.80;;;;;;;-145.23;100.00;58621.06;4985921;28;20766;-51
2022/09/24 09:09:41;;;;;;;7.93;7.25;;;;;;;-145.23;100.00;58621.06;4997938;28;20245;-52
2022/09/24 09:12:12;;;;;;;8.45;7.65;;;;;;;-145.23;100.00;58621.06;4999173;28;20224;-52
2022/09/24 09:14:41;;;;;;;6.85;6.20;;;;;;;-145.23;100.00;58621.06;5002589;28;20230;-52
2022/09/24 09:17:15;;;;;;;6.82;6.13;;;;;;;-145.23;100.00;58621.06;5004690;28;20233;-52
2022/09/24 09:19:42;;;;;;;9.27;7.03;;;;;;;-145.23;100.00;58621.06;5000279;28;20233;-50
2022/09/24 09:22:14;;;;;;;7.18;6.47;;;;;;;-145.23;100.00;58621.06;5006056;28;20241;-53
2022/09/24 09:24:45;;;;;;;8.25;7.45;;;;;;;-145.23;100.00;58621.06;4991578;28;20699;-53
2022/09/24 09:27:14;;;;;;;8.35;7.57;;;;;;;-145.23;100.00;58621.06;4989826;28;20259;-52
2022/09/24 09:29:41;;;;;;;7.28;6.57;;;;;;;-145.23;100.00;58621.06;4993803;28;20248;-51
2022/09/24 09:32:13;;;;;;;8.55;7.00;;;;;;;-145.23;100.00;58621.06;4999470;28;20229;-52
2022/09/24 09:34:50;;;;;;;7.65;6.72;;;;;;;-145.23;100.00;58621.06;4992711;28;20233;-52
2022/09/24 09:37:24;;;;;;;8.52;7.60;;;;;;;-145.23;100.00;58621.06;4988869;28;20703;-50
2022/09/24 09:39:59;;;;;;;12.90;6.70;;;;;;;-145.23;100.00;58621.06;4988777;28;20602;-51
2022/09/24 09:42:30;;;;;;;8.52;7.05;;;;;;;-145.23;100.00;58621.06;4991891;28;20236;-52
2022/09/24 09:45:00;;;;;;;8.15;6.97;;;;;;;-145.23;100.00;58621.06;4986375;28;20241;-51
2022/09/24 09:47:36;;;;;;;7.82;7.03;;;;;;;-145.23;100.00;58621.06;4989130;28;20771;-50
2022/09/24 09:50:05;;;;;;;8.07;7.25;;;;;;;-145.23;100.00;58621.06;4989261;28;20240;-53
2022/09/24 09:52:35;;;;;;;8.73;7.65;;;;;;;-145.23;100.00;58621.06;4990296;28;20308;-53
2022/09/24 09:55:05;;;;;;;8.13;6.65;;;;;;;-145.23;100.00;58621.06;4996197;28;20320;-52
2022/09/24 09:57:32;;;;;;;7.88;7.07;;;;;;;-145.23;100.00;58621.06;4986191;28;20325;-51
2022/09/24 10:00:00;;;;;;;8.88;8.02;;;;;;;-145.23;100.00;58621.06;4990239;28;20229;-52
2022/09/24 10:02:30;;;;;;;7.40;6.70;;;;;;;-145.23;100.00;58621.06;4989861;28;20644;-52
2022/09/24 10:04:58;;;;;;;8.48;7.47;;;;;;;-145.23;100.00;58621.06;4998273;28;20238;-52
2022/09/24 10:07:24;;;;;;;11.15;8.70;;;;;;;-145.23;100.00;58621.06;4996525;28;20647;-51
2022/09/24 10:10:04;;;;;;;8.55;7.70;;;;;;;-145.23;100.00;58621.06;4995604;28;20253;-52
2022/09/24 10:12:31;;;;;;;8.63;7.82;;;;;;;-145.23;100.00;58621.06;4994427;28;20232;-51
2022/09/24 10:15:00;;;;;;;9.13;6.80;;;;;;;-145.23;100.00;58621.06;4989946;28;20224;-53
2022/09/24 10:17:30;;;;;;;8.20;7.43;;;;;;;-145.23;100.00;58621.06;4994372;28;20244;-51
2022/09/24 10:19:57;;;;;;;7.78;7.07;;;;;;;-145.23;100.00;58621.06;4988953;28;20237;-51
2022/09/24 10:22:25;;;;;;;6.60;5.93;;;;;;;-145.23;100.00;58621.06;4985649;28;20314;-52
2022/09/24 10:24:53;;;;;;;7.63;7.03;;;;;;;-145.23;100.00;58621.06;4992983;28;20292;-51
2022/09/24 10:27:38;;;;;;;7.50;6.80;;;;;;;-145.23;100.00;58621.06;4969630;28;20779;-52
2022/09/24 10:32:57;;;;;;;7.65;6.95;;;;;;;-145.23;100.00;58621.06;4994800;28;20248;-53
2022/09/24 10:35:27;;;;;;;7.78;6.65;;;;;;;-145.23;100.00;58621.06;4997549;28;20225;-51
2022/09/24 10:37:55;;;;;;;6.65;5.85;;;;;;;-145.23;100.00;58621.06;4996328;28;20762;-52
2022/09/24 10:40:24;;;;;;;7.30;6.47;;;;;;;-145.23;100.00;58621.06;4988971;28;20233;-51
2022/09/24 10:43:02;;;;;;;8.25;6.13;;;;;;;-145.23;100.00;58621.06;4993703;28;20228;-52
2022/09/24 10:45:41;;;;;;;6.65;6.05;;;;;;;-145.23;100.00;58621.06;4988414;28;20714;-53
2022/09/24 10:48:15;;;;;;;9.00;6.32;;;;;;;-145.23;100.00;58621.06;4989167;28;20711;-52
2022/09/24 10:50:46;;;;;;;8.13;6.35;;;;;;;-145.23;100.00;58621.06;4994874;28;20332;-51
2022/09/24 10:53:14;;;;;;;7.07;6.38;;;;;;;-145.23;100.00;58621.06;4998939;28;20261;-51
2022/09/24 10:55:47;;;;;;;7.03;6.43;;;;;;;-145.23;100.00;58621.06;4998239;28;20241;-54
2022/09/24 10:58:24;;;;;;;10.02;7.75;;;;;;;-145.23;100.00;58621.06;5001442;28;20237;-54
2022/09/24 11:00:59;;;;;;;8.00;5.97;;;;;;;-145.23;100.00;58621.06;5002648;28;20233;-52
2022/09/24 11:03:51;;;;;;;6.53;5.95;;;;;;;-145.23;100.00;58621.06;4986165;28;20233;-50
2022/09/24 11:06:30;;;;;;;5.78;5.28;;;;;;;-145.23;100.00;58621.06;4983948;28;20229;-51
2022/09/24 11:09:07;;;;;;;6.70;6.13;;;;;;;-145.23;100.00;58621.06;4991329;28;20241;-51
2022/09/24 11:11:45;;;;;;;7.22;6.50;;;;;;;-145.23;100.00;58621.06;4994118;28;20283;-51
2022/09/24 11:14:25;;;;;;;6.85;6.07;;;;;;;-145.23;100.00;58621.06;4991564;28;20221;-52
2022/09/24 11:17:05;;;;;;;7.00;6.03;;;;;;;-145.23;100.00;58621.06;4992124;28;20245;-52
2022/09/24 11:20:05;;;;;;;6.35;5.75;;;;;;;-145.23;100.00;58621.06;4988353;28;20233;-52
2022/09/24 11:22:36;;;;;;;9.43;6.45;;;;;;;-145.23;100.00;58621.06;4980539;28;20311;-51
2022/09/24 11:25:20;;;;;;;7.68;6.80;;;;;;;-145.23;100.00;58621.06;4994121;28;20229;-52